Friedrichshafen Airport

EDNY · Baden-Württemberg, Germany

METAR history EDNY · Friedrichshafen Airport

Below you see METARs of the last few days. Select a year to browse through older METARs, from the year 2007 onwards.

April 21, 2024

Time Code Weather Temp. Visibility Ceiling Wind METAR/SPECI
10:50
I
2 °C 3 km 1,100 ft 300° 300° 6 kt METAR EDNY 210850Z 30006KT 220V020 3000 SNRA FEW007 BKN011 OVC022 02/02 Q1017
10:20
M
4 °C 9 km 1,600 ft 240° 240° 9 kt METAR EDNY 210820Z 24009KT 210V280 9000 -RA FEW014 OVC016 04/03 Q1016
09:50
M
5 °C 10 km+ 1,400 ft 230° 230° 11 kt METAR EDNY 210750Z 23011KT 9999 FEW012 BKN014 OVC055 05/04 Q1017
09:20
M
4 °C 10 km+ 1,100 ft 250° 250° 8 kt METAR EDNY 210720Z 25008KT 9999 BKN011 BKN014 OVC021 04/04 Q1017
08:50
M
4 °C 10 km+ 1,100 ft 250° 250° 9 kt METAR EDNY 210650Z 25009KT 220V280 9999 BKN011 OVC016 04/03 Q1017
08:20
M
4 °C 10 km+ 1,100 ft 250° 250° 5 kt METAR EDNY 210620Z 25005KT 230V290 9999 BKN011 OVC048 04/04 Q1017
07:50
M
4 °C 10 km+ 1,300 ft 260° 260° 4 kt METAR EDNY 210550Z 26004KT 230V290 9999 FEW010 BKN013 OVC029 04/04 Q1017
07:20
M
4 °C 10 km+ 3,000 ft 250° 250° 4 kt METAR EDNY 210520Z 25004KT 9999 SCT010 BKN030 OVC055 04/04 Q1017
06:50
M
4 °C 10 km+ 1,100 ft 260° 260° 5 kt METAR EDNY 210450Z 26005KT 9999 SCT009 BKN011 OVC050 04/04 Q1017
06:20
M
4 °C 10 km+ 1,000 ft 240° 240° 7 kt METAR EDNY 210420Z 24007KT 9999 BKN010 OVC041 04/04 Q1018
05:50
M
4 °C 10 km+ 1,200 ft 250° 250° 6 kt METAR EDNY 210350Z 25006KT 9999 OVC012 04/03 Q1018
05:20
M
3 °C 10 km+ 1,200 ft 260° 260° 4 kt METAR EDNY 210320Z AUTO 26004KT 230V300 9999 // BKN012/// OVC026/// 03/03 Q1018
04:50
V
3 °C 10 km+ 4,300 ft 250° 250° 4 kt METAR EDNY 210250Z AUTO 25004KT 9999 // SCT011/// BKN043/// OVC061/// 03/03 Q1019
04:20
M
3 °C 10 km+ 1,000 ft 260° 260° 6 kt METAR EDNY 210220Z AUTO 26006KT 230V290 9999 // BKN010/// BKN051/// OVC079/// 03/03 Q1019
03:50
V
3 °C 10 km+ 4,600 ft 260° 260° 4 kt METAR EDNY 210150Z AUTO 26004KT 220V300 9999 // FEW011/// BKN046/// OVC065/// 03/03 Q1019
03:20
V
3 °C 10 km+ 4,900 ft 250° 250° 4 kt METAR EDNY 210120Z AUTO 25004KT 9999 // FEW010/// BKN049/// OVC057/// 03/03 Q1020
02:50
V
3 °C 10 km+ 5,500 ft 260° 260° 3 kt METAR EDNY 210050Z AUTO 26003KT 9999 // FEW030/// BKN055/// OVC072/// 03/03 Q1020
02:20
V
4 °C 10 km+ 5,400 ft 260° 260° 4 kt METAR EDNY 210020Z AUTO 26004KT 220V310 9999 // SCT012/// BKN054/// OVC065/// 04/04 Q1020
01:50
V
4 °C 10 km+ 6,100 ft 250° 250° 3 kt METAR EDNY 202350Z AUTO 25003KT 9999 // SCT009/// SCT019/// OVC061/// 04/04 Q1020
01:20
M
4 °C 10 km+ 2,800 ft 250° 250° 4 kt METAR EDNY 202320Z AUTO 25004KT 220V290 9999 // SCT009/// BKN028/// OVC100/// 04/04 Q1020
00:50
I
4 °C 10 km+ 900 ft 250° 250° 4 kt METAR EDNY 202250Z AUTO 25004KT 9999 // BKN009/// BKN014/// OVC036/// 04/04 Q1021
00:20
M
4 °C 10 km+ 1,000 ft 250° 250° 3 kt METAR EDNY 202220Z AUTO 25003KT 220V290 9999 // BKN010/// OVC031/// 04/04 Q1021

April 20, 2024

Time Code Weather Temp. Visibility Ceiling Wind METAR/SPECI
23:50
M
4 °C 10 km+ 1,100 ft 270° 270° 3 kt METAR EDNY 202150Z AUTO 27003KT 220V310 9999 // SCT009/// BKN011/// OVC022/// 04/04 Q1021
23:20
M
4 °C 10 km+ 2,600 ft Var Var 2 kt METAR EDNY 202120Z AUTO VRB02KT 9999 // FEW015/// BKN026/// OVC055/// 04/04 Q1021
22:50
M
4 °C 10 km+ 1,200 ft Var Var 2 kt METAR EDNY 202050Z AUTO VRB02KT 9999 // FEW009/// BKN012/// OVC033/// 04/04 Q1021
22:20
M
4 °C 10 km+ 1,500 ft 360° 360° 0 kt METAR EDNY 202020Z AUTO 00000KT 9999 // BKN015/// OVC020/// 04/04 Q1021
21:50
M
4 °C 10 km+ 3,000 ft Var Var 2 kt METAR EDNY 201950Z AUTO VRB02KT 9999 // FEW018/// SCT023/// OVC030/// 04/04 Q1021
21:20
V
4 °C 10 km+ 3,200 ft 280° 280° 3 kt METAR EDNY 201920Z AUTO 28003KT 240V320 9999 // FEW022/// SCT026/// OVC032/// 04/03 Q1021
20:50
M
4 °C 10 km+ 2,700 ft 270° 270° 7 kt METAR EDNY 201850Z AUTO 27007KT 230V310 9999 // FEW017/// BKN027/// OVC045/// 04/03 Q1021
20:20
V
6 °C 10 km+ 3,600 ft 260° 260° 11 kt METAR EDNY 201820Z AUTO 26011KT 230V300 9999 // FEW009/// BKN036/// OVC045/// 06/03 Q1020
19:50
V
6 °C 10 km+ - 250° 250° 8 kt METAR EDNY 201750Z 25008KT 230V290 9999 FEW022 SCT037 06/03 Q1020
19:20
V
7 °C 10 km+ - 210° 210° 5 kt METAR EDNY 201720Z 21005KT 160V250 9999 FEW021 07/02 Q1020
18:50
V
7 °C 10 km+ - 200° 200° 6 kt METAR EDNY 201650Z 20006KT 160V220 9999 FEW036 07/03 Q1020
18:20
V
7 °C 10 km+ - 210° 210° 7 kt METAR EDNY 201620Z 21007KT 9999 FEW035 07/02 Q1020
17:50
V
8 °C 10 km+ 4,700 ft 210° 210° 8 kt METAR EDNY 201550Z 21008KT 9999 FEW018 BKN047 08/02 Q1020
17:20
V
8 °C 10 km+ 3,800 ft 210° 210° 7 kt METAR EDNY 201520Z 21007KT 170V260 9999 FEW024 SCT029 BKN038 08/02 Q1020
16:50
V
8 °C 10 km+ 5,100 ft 180° 180° 6 kt METAR EDNY 201450Z 18006KT 110V230 9999 FEW030 BKN051 08/03 Q1019
16:20
V
8 °C 10 km+ 3,800 ft 170° 170° 8 kt METAR EDNY 201420Z 17008KT 140V200 9999 SCT026 BKN038 08/03 Q1019
15:50
V
8 °C 10 km+ 4,600 ft 170° 170° 6 kt METAR EDNY 201350Z 17006KT 130V230 9999 FEW028 BKN046 08/03 Q1019
15:20
V
8 °C 10 km+ - Var Var 5 kt METAR EDNY 201320Z VRB05KT 9999 SCT042 08/02 Q1019
14:50
M
7 °C 10 km+ 2,600 ft 200° 200° 7 kt METAR EDNY 201250Z 20007KT 170V230 9999 BKN026 BKN043 07/03 Q1019
14:20
V
7 °C 10 km+ 5,300 ft 210° 210° 7 kt METAR EDNY 201220Z 21007KT 170V250 9999 FEW037 BKN053 07/04 Q1019
13:50
V
8 °C 10 km+ 4,900 ft Var Var 3 kt METAR EDNY 201150Z VRB03KT 9999 FEW035 SCT042 BKN049 08/01 Q1019
13:20
V
7 °C 10 km+ 3,200 ft 230° 230° 4 kt METAR EDNY 201120Z 23004KT 180V290 9999 BKN032 BKN042 07/03 Q1019
12:50
V
6 °C 10 km+ 5,000 ft 260° 260° 5 kt METAR EDNY 201050Z 26005KT 170V340 9999 SCT032 BKN050 06/03 Q1019
12:20
V
6 °C 10 km+ - 250° 250° 4 kt METAR EDNY 201020Z 25004KT 180V300 9999 SCT034 06/02 Q1019
11:50
V
4 °C 10 km+ - 280° 280° 3 kt METAR EDNY 200950Z 28003KT 190V360 9999 FEW015 SCT039 04/02 Q1019
11:20
M
4 °C 10 km+ 1,800 ft 270° 270° 6 kt METAR EDNY 200920Z 27006KT 230V340 9999 -RA BKN018 04/03 Q1018
10:50
V
5 °C 10 km+ 3,100 ft 260° 260° 5 kt METAR EDNY 200850Z 26005KT 230V310 9999 -RA FEW018 BKN031 OVC044 05/03 Q1018
10:20
V
5 °C 10 km+ 3,100 ft 260° 260° 5 kt METAR EDNY 200820Z 26005KT 230V290 9999 BKN031 OVC038 05/03 Q1018
09:50
V
5 °C 10 km+ 4,300 ft 270° 270° 4 kt METAR EDNY 200750Z 27004KT 230V300 9999 OVC043 05/03 Q1017
09:20
M
4 °C 10 km+ 2,200 ft 270° 270° 5 kt METAR EDNY 200720Z 27005KT 230V340 9999 -RA OVC022 04/03 Q1017
08:50
M
4 °C 10 km+ 2,500 ft 270° 270° 3 kt METAR EDNY 200650Z 27003KT 240V320 9999 FEW016 OVC025 04/03 Q1017
08:20
V
4 °C 10 km+ 3,200 ft 270° 270° 4 kt METAR EDNY 200620Z 27004KT 240V310 9999 SCT024 BKN032 OVC046 04/03 Q1016
07:50
V
4 °C 10 km+ - 260° 260° 4 kt METAR EDNY 200550Z 26004KT 230V300 9999 FEW023 SCT028 04/03 Q1016
07:20
V
3 °C 10 km+ - 270° 270° 3 kt METAR EDNY 200520Z 27003KT 240V300 9999 FEW023 SCT033 03/03 Q1016
06:50
V
3 °C 10 km+ - 260° 260° 3 kt METAR EDNY 200450Z 26003KT 230V330 9999 FEW032 03/03 Q1015
06:20
V
2 °C 10 km+ - 290° 290° 3 kt METAR EDNY 200420Z 29003KT 9999 FEW026 02/02 Q1015
05:50
M
3 °C 10 km+ 2,400 ft Var Var 2 kt METAR EDNY 200350Z VRB02KT 9999 FEW012 BKN024 BKN031 03/02 Q1015
05:20
M
2 °C 10 km+ 3,000 ft Var Var 2 kt METAR EDNY 200320Z AUTO VRB02KT 9999 // SCT025/// BKN030/// OVC180/// 02/02 Q1014
04:50
V
3 °C 10 km+ 7,000 ft 260° 260° 4 kt METAR EDNY 200250Z AUTO 26004KT 240V300 9999 // FEW012/// BKN070/// BKN190/// 03/03 Q1014
04:20
V
2 °C 10 km+ 7,200 ft 260° 260° 4 kt METAR EDNY 200220Z AUTO 26004KT 9999 // FEW027/// BKN072/// 02/02 Q1014
03:50
V
2 °C 10 km+ 9,700 ft Var Var 2 kt METAR EDNY 200150Z AUTO VRB02KT 9999 // FEW033/// BKN097/// 02/02 Q1014
03:20
V
2 °C 10 km+ 9,200 ft 080° 080° 2 kt METAR EDNY 200120Z AUTO 08002KT 9999 // FEW013/// SCT066/// BKN092/// 02/02 Q1014
02:50
V
3 °C 10 km+ 7,200 ft 080° 080° 5 kt METAR EDNY 200050Z AUTO 08005KT 9999 // FEW015/// BKN072/// BKN110/// 03/03 Q1014
02:20
V
3 °C 10 km+ 6,900 ft 060° 060° 4 kt METAR EDNY 200020Z AUTO 06004KT 360V080 9999 // FEW012/// BKN069/// BKN089/// 03/03 Q1013
01:50
M
6 °C 10 km+ 1,500 ft 270° 270° 5 kt METAR EDNY 192350Z AUTO 27005KT 240V310 9999 // FEW011/// BKN015/// OVC023/// 06/05 Q1014
01:20
M
6 °C 10 km+ 1,400 ft 250° 250° 6 kt METAR EDNY 192320Z AUTO 25006KT 210V300 9999 // SCT011/// BKN014/// BKN073/// 06/06 Q1013
00:50
M
6 °C 10 km+ 1,000 ft 250° 250° 7 kt METAR EDNY 192250Z AUTO 25007KT 9999 // BKN010/// OVC069/// 06/05 Q1013
00:20
M
5 °C 10 km+ 1,100 ft 240° 240° 9 kt METAR EDNY 192220Z AUTO 24009KT 9999 // BKN011/// BKN054/// OVC061/// 05/05 Q1013

April 19, 2024

Time Code Weather Temp. Visibility Ceiling Wind METAR/SPECI
23:50
M
5 °C 10 km+ 1,100 ft 220° 220° 9 kt METAR EDNY 192150Z AUTO 22009KT 9999 // OVC011/// 05/05 Q1013
23:20
M
5 °C 10 km+ 1,700 ft 220° 220° 8 kt METAR EDNY 192120Z AUTO 22008KT 9999 // FEW012/// BKN017/// OVC050/// 05/05 Q1013
22:50
M
5 °C 10 km+ 1,000 ft 220° 220° 11 kt METAR EDNY 192050Z AUTO 22011KT 9999 // BKN010/// BKN018/// OVC078/// 05/05 Q1013
22:20
M
5 °C 10 km+ 1,100 ft 240° 240° 11 kt METAR EDNY 192020Z AUTO 24011KT 9999 // BKN011/// OVC020/// 05/04 Q1013
21:50
M
5 °C 8 km 1,200 ft 240° 240° 13 kt METAR EDNY 191950Z 24013KT 8000 -RA OVC012 05/04 Q1013
21:20
M
5 °C 10 km+ 1,300 ft 250° 250° 13 kt METAR EDNY 191920Z 25013KT 210V280 9999 -RA OVC013 05/04 Q1013
20:50
M
5 °C 10 km+ 1,500 ft 250° 250° 13 kt METAR EDNY 191850Z 25013KT 9999 -RA BKN015 OVC018 05/04 Q1013
20:20
M
5 °C 10 km+ 1,700 ft 250° 250° 14 kt METAR EDNY 191820Z 25014KT 9999 -RA OVC017 05/04 Q1013
19:50
M
5 °C 10 km+ 1,800 ft 250° 250° 14 kt METAR EDNY 191750Z 25014KT 9999 -RA OVC018 05/04 Q1012
19:20
M
5 °C 10 km+ 2,000 ft 250° 250° 14 kt METAR EDNY 191720Z 25014KT 9999 -RA BKN020 OVC028 05/04 Q1013
18:50
M
5 °C 10 km+ 2,000 ft 240° 240° 14 kt METAR EDNY 191650Z 24014KT 9999 -RA BKN020 OVC027 05/03 Q1013
18:20
M
5 °C 10 km+ 1,900 ft 240° 240° 14 kt METAR EDNY 191620Z 24014KT 9999 -RA BKN019 OVC028 05/04 Q1013
17:50
M
5 °C 10 km+ 2,000 ft 240° 240° 15 kt METAR EDNY 191550Z 24015KT 9999 -RA BKN020 OVC026 05/03 Q1013
17:20
M
5 °C 10 km+ 2,400 ft 240° 240° 20 - 30 kt METAR EDNY 191520Z 24020G30KT 9999 BKN024 OVC032 05/03 Q1013
16:50
M
6 °C 10 km+ 2,400 ft 240° 240° 15 kt METAR EDNY 191450Z 24015KT 9999 BKN024 OVC030 06/03 Q1014
16:20
M
6 °C 10 km+ 2,500 ft 230° 230° 16 kt METAR EDNY 191420Z 23016KT 9999 BKN025 OVC032 06/03 Q1014
15:50
M
6 °C 10 km+ 2,400 ft 240° 240° 18 - 28 kt METAR EDNY 191350Z 24018G28KT 9999 OVC024 06/03 Q1015
15:20
M
6 °C 10 km+ 2,700 ft 250° 250° 18 - 29 kt METAR EDNY 191320Z 25018G29KT 9999 OVC027 06/02 Q1015
14:50
V
6 °C 10 km+ 4,600 ft 250° 250° 23 - 35 kt METAR EDNY 191250Z 25023G35KT 9999 FEW033 SCT039 OVC046 06/01 Q1016
14:20
V
6 °C 10 km+ 3,900 ft 250° 250° 23 - 35 kt METAR EDNY 191220Z 25023G35KT 9999 BKN039 OVC050 06/01 Q1016
13:50
V
7 °C 10 km+ 3,900 ft 250° 250° 18 - 29 kt METAR EDNY 191150Z 25018G29KT 220V300 9999 BKN039 OVC050 07/00 Q1016
13:20
V
7 °C 10 km+ 4,600 ft 240° 240° 18 - 29 kt METAR EDNY 191120Z 24018G29KT 9999 SCT037 OVC046 07/01 Q1016
12:50
V
7 °C 10 km+ 3,700 ft 240° 240° 17 kt METAR EDNY 191050Z 24017KT 9999 OVC037 07/01 Q1016
12:20
V
7 °C 10 km+ - 240° 240° 18 kt METAR EDNY 191020Z 24018KT 9999 -RA FEW039 SCT049 07/01 Q1017
11:50
M
7 °C 10 km+ 2,800 ft 230° 230° 17 kt METAR EDNY 190950Z 23017KT 9999 -RA BKN028 OVC038 07/02 Q1018
11:20
M
7 °C 10 km+ 2,800 ft 230° 230° 16 kt METAR EDNY 190920Z 23016KT 9999 -RA BKN028 OVC035 07/02 Q1018
10:50
M
6 °C 10 km+ 2,500 ft 240° 240° 14 kt METAR EDNY 190850Z 24014KT 9999 -RA SCT017 BKN025 OVC044 06/03 Q1019
10:20
V
6 °C 10 km+ 3,300 ft 240° 240° 12 kt METAR EDNY 190820Z 24012KT 210V270 9999 FEW018 OVC033 06/03 Q1019
09:50
V
5 °C 10 km+ 4,800 ft 250° 250° 10 kt METAR EDNY 190750Z 25010KT 9999 FEW023 SCT040 OVC048 05/03 Q1019
09:20
V
5 °C 10 km+ 5,300 ft 240° 240° 10 kt METAR EDNY 190720Z 24010KT 9999 FEW022 OVC053 05/03 Q1019
08:50
V
5 °C 10 km+ 5,500 ft 240° 240° 11 kt METAR EDNY 190650Z 24011KT 210V270 9999 FEW020 BKN055 05/03 Q1019
08:20
V
5 °C 10 km+ 4,700 ft 240° 240° 9 kt METAR EDNY 190620Z 24009KT 9999 FEW028 BKN047 05/03 Q1019
07:50
V
4 °C 10 km+ - 240° 240° 6 kt METAR EDNY 190550Z 24006KT 9999 FEW014 SCT047 04/03 Q1019
Report a change